sensor_id;sensor_type;location;lat;lon;timestamp;temperature;humidity
39401;SHT31;75540;50.000;7.360;2024-01-27T00:00:28;1.16;85.05
39401;SHT31;75540;50.000;7.360;2024-01-27T00:02:56;1.13;85.18
39401;SHT31;75540;50.000;7.360;2024-01-27T00:05:25;1.01;85.15
39401;SHT31;75540;50.000;7.360;2024-01-27T00:07:57;1.07;85.24
39401;SHT31;75540;50.000;7.360;2024-01-27T00:10:25;1.03;85.34
39401;SHT31;75540;50.000;7.360;2024-01-27T00:12:55;0.97;85.42
39401;SHT31;75540;50.000;7.360;2024-01-27T00:15:24;0.91;85.45
39401;SHT31;75540;50.000;7.360;2024-01-27T00:17:53;1.03;85.13
39401;SHT31;75540;50.000;7.360;2024-01-27T00:20:21;1.03;85.09
39401;SHT31;75540;50.000;7.360;2024-01-27T00:22:50;0.93;85.45
39401;SHT31;75540;50.000;7.360;2024-01-27T00:25:19;0.77;85.42
39401;SHT31;75540;50.000;7.360;2024-01-27T00:27:47;0.70;86.09
39401;SHT31;75540;50.000;7.360;2024-01-27T00:30:17;0.72;86.07
39401;SHT31;75540;50.000;7.360;2024-01-27T00:32:45;0.64;86.23
39401;SHT31;75540;50.000;7.360;2024-01-27T00:35:14;0.69;86.47
39401;SHT31;75540;50.000;7.360;2024-01-27T00:37:42;0.59;86.20
39401;SHT31;75540;50.000;7.360;2024-01-27T00:40:11;0.54;87.14
39401;SHT31;75540;50.000;7.360;2024-01-27T00:42:40;0.52;86.65
39401;SHT31;75540;50.000;7.360;2024-01-27T00:45:09;0.41;87.59
39401;SHT31;75540;50.000;7.360;2024-01-27T00:47:39;0.39;87.43
39401;SHT31;75540;50.000;7.360;2024-01-27T00:50:08;0.46;87.35
39401;SHT31;75540;50.000;7.360;2024-01-27T00:52:37;0.43;86.92
39401;SHT31;75540;50.000;7.360;2024-01-27T00:55:06;0.46;87.15
39401;SHT31;75540;50.000;7.360;2024-01-27T00:57:36;0.53;86.85
39401;SHT31;75540;50.000;7.360;2024-01-27T01:00:05;0.62;86.37
39401;SHT31;75540;50.000;7.360;2024-01-27T01:02:33;0.63;86.21
39401;SHT31;75540;50.000;7.360;2024-01-27T01:05:04;0.52;86.92
39401;SHT31;75540;50.000;7.360;2024-01-27T01:07:32;0.45;87.10
39401;SHT31;75540;50.000;7.360;2024-01-27T01:10:01;0.45;86.94
39401;SHT31;75540;50.000;7.360;2024-01-27T01:12:29;0.45;86.99
39401;SHT31;75540;50.000;7.360;2024-01-27T01:14:58;0.50;86.81
39401;SHT31;75540;50.000;7.360;2024-01-27T01:17:27;0.49;86.69
39401;SHT31;75540;50.000;7.360;2024-01-27T01:19:55;0.48;86.59
39401;SHT31;75540;50.000;7.360;2024-01-27T01:22:25;0.48;86.53
39401;SHT31;75540;50.000;7.360;2024-01-27T01:24:53;0.46;86.67
39401;SHT31;75540;50.000;7.360;2024-01-27T01:27:22;0.30;87.06
39401;SHT31;75540;50.000;7.360;2024-01-27T01:29:50;0.23;87.28
39401;SHT31;75540;50.000;7.360;2024-01-27T01:32:20;0.25;87.53
39401;SHT31;75540;50.000;7.360;2024-01-27T01:34:49;0.26;87.63
39401;SHT31;75540;50.000;7.360;2024-01-27T01:37:17;0.28;87.42
39401;SHT31;75540;50.000;7.360;2024-01-27T01:39:47;0.23;87.45
39401;SHT31;75540;50.000;7.360;2024-01-27T01:42:15;0.16;87.76
39401;SHT31;75540;50.000;7.360;2024-01-27T01:44:43;0.06;88.42
39401;SHT31;75540;50.000;7.360;2024-01-27T01:47:12;0.06;88.11
39401;SHT31;75540;50.000;7.360;2024-01-27T01:49:40;-0.06;88.27
39401;SHT31;75540;50.000;7.360;2024-01-27T01:52:09;0.12;88.31
39401;SHT31;75540;50.000;7.360;2024-01-27T01:54:38;0.12;88.18
39401;SHT31;75540;50.000;7.360;2024-01-27T01:57:08;0.13;87.90
39401;SHT31;75540;50.000;7.360;2024-01-27T01:59:36;0.13;88.20
39401;SHT31;75540;50.000;7.360;2024-01-27T02:02:07;0.19;87.97
39401;SHT31;75540;50.000;7.360;2024-01-27T02:04:40;0.13;88.12
39401;SHT31;75540;50.000;7.360;2024-01-27T02:07:08;0.33;87.82
39401;SHT31;75540;50.000;7.360;2024-01-27T02:09:37;0.23;87.78
39401;SHT31;75540;50.000;7.360;2024-01-27T02:12:07;0.16;88.04
39401;SHT31;75540;50.000;7.360;2024-01-27T02:14:36;0.18;88.09
39401;SHT31;75540;50.000;7.360;2024-01-27T02:17:04;0.03;88.53
39401;SHT31;75540;50.000;7.360;2024-01-27T02:19:32;0.11;88.39
39401;SHT31;75540;50.000;7.360;2024-01-27T02:22:01;0.05;88.59
39401;SHT31;75540;50.000;7.360;2024-01-27T02:24:31;0.05;88.62
39401;SHT31;75540;50.000;7.360;2024-01-27T02:26:59;0.08;88.50
39401;SHT31;75540;50.000;7.360;2024-01-27T02:29:27;0.01;88.78
39401;SHT31;75540;50.000;7.360;2024-01-27T02:31:56;0.18;88.52
39401;SHT31;75540;50.000;7.360;2024-01-27T02:34:24;0.29;88.15
39401;SHT31;75540;50.000;7.360;2024-01-27T02:36:53;0.43;87.78
39401;SHT31;75540;50.000;7.360;2024-01-27T02:39:21;0.45;87.62
39401;SHT31;75540;50.000;7.360;2024-01-27T02:41:51;0.23;87.83
39401;SHT31;75540;50.000;7.360;2024-01-27T02:44:19;0.26;88.07
39401;SHT31;75540;50.000;7.360;2024-01-27T02:46:47;0.12;88.38
39401;SHT31;75540;50.000;7.360;2024-01-27T02:49:16;0.21;88.27
39401;SHT31;75540;50.000;7.360;2024-01-27T02:51:44;0.11;88.22
39401;SHT31;75540;50.000;7.360;2024-01-27T02:54:14;-0.01;88.46
39401;SHT31;75540;50.000;7.360;2024-01-27T02:56:43;0.02;88.64
39401;SHT31;75540;50.000;7.360;2024-01-27T02:59:13;0.02;88.60
39401;SHT31;75540;50.000;7.360;2024-01-27T03:01:41;0.19;88.53
39401;SHT31;75540;50.000;7.360;2024-01-27T03:04:09;0.15;88.33
39401;SHT31;75540;50.000;7.360;2024-01-27T03:06:38;0.05;88.27
39401;SHT31;75540;50.000;7.360;2024-01-27T03:09:06;0.01;88.54
39401;SHT31;75540;50.000;7.360;2024-01-27T03:11:35;0.09;88.49
39401;SHT31;75540;50.000;7.360;2024-01-27T03:14:03;0.02;88.47
39401;SHT31;75540;50.000;7.360;2024-01-27T03:16:33;0.16;88.50
39401;SHT31;75540;50.000;7.360;2024-01-27T03:19:02;0.09;88.24
39401;SHT31;75540;50.000;7.360;2024-01-27T03:21:30;-0.08;88.98
39401;SHT31;75540;50.000;7.360;2024-01-27T03:23:59;-0.01;89.13
39401;SHT31;75540;50.000;7.360;2024-01-27T03:26:28;0.01;88.95
39401;SHT31;75540;50.000;7.360;2024-01-27T03:28:56;0.12;88.58
39401;SHT31;75540;50.000;7.360;2024-01-27T03:31:30;0.32;88.24
39401;SHT31;75540;50.000;7.360;2024-01-27T03:33:59;0.21;88.28
39401;SHT31;75540;50.000;7.360;2024-01-27T03:36:28;0.23;87.99
39401;SHT31;75540;50.000;7.360;2024-01-27T03:38:58;0.22;88.10
39401;SHT31;75540;50.000;7.360;2024-01-27T03:41:27;0.16;88.00
39401;SHT31;75540;50.000;7.360;2024-01-27T03:43:55;0.16;87.92
39401;SHT31;75540;50.000;7.360;2024-01-27T03:46:23;0.03;88.49
39401;SHT31;75540;50.000;7.360;2024-01-27T03:48:51;0.03;88.16
39401;SHT31;75540;50.000;7.360;2024-01-27T03:51:22;0.01;88.04
39401;SHT31;75540;50.000;7.360;2024-01-27T03:53:51;0.09;88.14
39401;SHT31;75540;50.000;7.360;2024-01-27T03:56:20;0.09;88.02
39401;SHT31;75540;50.000;7.360;2024-01-27T03:58:48;0.02;88.30
39401;SHT31;75540;50.000;7.360;2024-01-27T04:01:16;0.09;88.35
39401;SHT31;75540;50.000;7.360;2024-01-27T04:03:45;0.02;88.35
39401;SHT31;75540;50.000;7.360;2024-01-27T04:06:13;0.12;88.30
39401;SHT31;75540;50.000;7.360;2024-01-27T04:08:43;0.02;88.33
39401;SHT31;75540;50.000;7.360;2024-01-27T04:11:19;0.05;88.41
39401;SHT31;75540;50.000;7.360;2024-01-27T04:13:49;0.13;88.16
39401;SHT31;75540;50.000;7.360;2024-01-27T04:16:17;-0.03;88.28
39401;SHT31;75540;50.000;7.360;2024-01-27T04:18:46;0.05;88.38
39401;SHT31;75540;50.000;7.360;2024-01-27T04:21:15;0.11;88.22
39401;SHT31;75540;50.000;7.360;2024-01-27T04:23:45;0.12;88.10
39401;SHT31;75540;50.000;7.360;2024-01-27T04:26:13;0.15;88.09
39401;SHT31;75540;50.000;7.360;2024-01-27T04:28:41;0.08;88.01
39401;SHT31;75540;50.000;7.360;2024-01-27T04:31:10;0.18;87.69
39401;SHT31;75540;50.000;7.360;2024-01-27T04:33:38;-0.03;88.19
39401;SHT31;75540;50.000;7.360;2024-01-27T04:36:07;-0.09;88.43
39401;SHT31;75540;50.000;7.360;2024-01-27T04:38:37;-0.16;88.27
39401;SHT31;75540;50.000;7.360;2024-01-27T04:41:07;-0.22;89.16
39401;SHT31;75540;50.000;7.360;2024-01-27T04:43:35;-0.08;88.87
39401;SHT31;75540;50.000;7.360;2024-01-27T04:46:04;-0.09;88.97
39401;SHT31;75540;50.000;7.360;2024-01-27T04:48:32;-0.08;88.77
39401;SHT31;75540;50.000;7.360;2024-01-27T04:51:01;-0.15;88.77
39401;SHT31;75540;50.000;7.360;2024-01-27T04:53:29;-0.26;89.11
39401;SHT31;75540;50.000;7.360;2024-01-27T04:55:57;-0.30;89.39
39401;SHT31;75540;50.000;7.360;2024-01-27T04:58:27;-0.23;88.98
39401;SHT31;75540;50.000;7.360;2024-01-27T05:00:56;-0.15;88.94
39401;SHT31;75540;50.000;7.360;2024-01-27T05:03:26;-0.25;88.89
39401;SHT31;75540;50.000;7.360;2024-01-27T05:05:54;-0.42;89.35
39401;SHT31;75540;50.000;7.360;2024-01-27T05:08:23;-0.34;89.37
39401;SHT31;75540;50.000;7.360;2024-01-27T05:10:51;-0.39;89.33
39401;SHT31;75540;50.000;7.360;2024-01-27T05:13:24;-0.22;89.42
39401;SHT31;75540;50.000;7.360;2024-01-27T05:15:54;-0.34;89.67
39401;SHT31;75540;50.000;7.360;2024-01-27T05:18:22;-0.22;89.73
39401;SHT31;75540;50.000;7.360;2024-01-27T05:20:51;-0.03;89.10
39401;SHT31;75540;50.000;7.360;2024-01-27T05:23:19;-0.13;88.89
39401;SHT31;75540;50.000;7.360;2024-01-27T05:25:47;-0.19;89.17
39401;SHT31;75540;50.000;7.360;2024-01-27T05:28:16;-0.22;89.25
39401;SHT31;75540;50.000;7.360;2024-01-27T05:30:44;-0.08;88.85
39401;SHT31;75540;50.000;7.360;2024-01-27T05:33:14;-0.18;88.94
39401;SHT31;75540;50.000;7.360;2024-01-27T05:35:43;-0.26;89.01
39401;SHT31;75540;50.000;7.360;2024-01-27T05:38:12;-0.28;89.13
39401;SHT31;75540;50.000;7.360;2024-01-27T05:40:40;-0.30;89.03
39401;SHT31;75540;50.000;7.360;2024-01-27T05:43:08;-0.43;89.42
39401;SHT31;75540;50.000;7.360;2024-01-27T05:45:37;-0.44;89.52
39401;SHT31;75540;50.000;7.360;2024-01-27T05:48:06;-0.46;90.29
39401;SHT31;75540;50.000;7.360;2024-01-27T05:50:36;-0.43;90.22
39401;SHT31;75540;50.000;7.360;2024-01-27T05:53:04;-0.43;90.41
39401;SHT31;75540;50.000;7.360;2024-01-27T05:55:33;-0.30;89.95
39401;SHT31;75540;50.000;7.360;2024-01-27T05:58:01;-0.30;89.76
39401;SHT31;75540;50.000;7.360;2024-01-27T06:00:30;-0.29;89.53
39401;SHT31;75540;50.000;7.360;2024-01-27T06:02:58;-0.32;89.51
39401;SHT31;75540;50.000;7.360;2024-01-27T06:05:27;-0.30;89.78
39401;SHT31;75540;50.000;7.360;2024-01-27T06:07:56;-0.22;89.59
39401;SHT31;75540;50.000;7.360;2024-01-27T06:10:25;-0.22;89.68
39401;SHT31;75540;50.000;7.360;2024-01-27T06:12:53;-0.23;89.49
39401;SHT31;75540;50.000;7.360;2024-01-27T06:15:21;-0.23;89.48
39401;SHT31;75540;50.000;7.360;2024-01-27T06:17:49;-0.26;89.18
39401;SHT31;75540;50.000;7.360;2024-01-27T06:20:18;-0.13;89.62
39401;SHT31;75540;50.000;7.360;2024-01-27T06:22:46;-0.10;89.26
39401;SHT31;75540;50.000;7.360;2024-01-27T06:25:16;-0.10;88.88
39401;SHT31;75540;50.000;7.360;2024-01-27T06:27:44;-0.22;88.57
39401;SHT31;75540;50.000;7.360;2024-01-27T06:30:13;-0.09;88.56
39401;SHT31;75540;50.000;7.360;2024-01-27T06:32:43;0.01;88.37
39401;SHT31;75540;50.000;7.360;2024-01-27T06:35:11;0.05;88.26
39401;SHT31;75540;50.000;7.360;2024-01-27T06:37:39;0.03;88.45
39401;SHT31;75540;50.000;7.360;2024-01-27T06:40:08;0.06;88.30
39401;SHT31;75540;50.000;7.360;2024-01-27T06:42:38;0.05;88.23
39401;SHT31;75540;50.000;7.360;2024-01-27T06:45:07;-0.10;88.38
39401;SHT31;75540;50.000;7.360;2024-01-27T06:47:36;-0.15;88.64
39401;SHT31;75540;50.000;7.360;2024-01-27T06:50:05;-0.22;88.57
39401;SHT31;75540;50.000;7.360;2024-01-27T06:52:33;-0.25;89.00
39401;SHT31;75540;50.000;7.360;2024-01-27T06:55:02;-0.29;89.65
39401;SHT31;75540;50.000;7.360;2024-01-27T06:57:31;-0.26;89.40
39401;SHT31;75540;50.000;7.360;2024-01-27T07:00:01;-0.19;89.23
39401;SHT31;75540;50.000;7.360;2024-01-27T07:02:30;-0.15;89.23
39401;SHT31;75540;50.000;7.360;2024-01-27T07:04:59;-0.13;89.33
39401;SHT31;75540;50.000;7.360;2024-01-27T07:07:27;-0.13;89.25
39401;SHT31;75540;50.000;7.360;2024-01-27T07:09:56;-0.16;89.17
39401;SHT31;75540;50.000;7.360;2024-01-27T07:12:25;-0.09;89.20
39401;SHT31;75540;50.000;7.360;2024-01-27T07:14:53;0.02;89.14
39401;SHT31;75540;50.000;7.360;2024-01-27T07:17:25;0.05;88.59
39401;SHT31;75540;50.000;7.360;2024-01-27T07:19:54;-0.03;88.87
39401;SHT31;75540;50.000;7.360;2024-01-27T07:22:23;-0.19;88.77
39401;SHT31;75540;50.000;7.360;2024-01-27T07:24:51;-0.30;89.88
39401;SHT31;75540;50.000;7.360;2024-01-27T07:27:20;-0.44;90.33
39401;SHT31;75540;50.000;7.360;2024-01-27T07:29:48;-0.64;90.73
39401;SHT31;75540;50.000;7.360;2024-01-27T07:32:18;-0.67;90.98
39401;SHT31;75540;50.000;7.360;2024-01-27T07:34:48;-0.56;91.09
39401;SHT31;75540;50.000;7.360;2024-01-27T07:37:16;-0.37;90.60
39401;SHT31;75540;50.000;7.360;2024-01-27T07:39:44;-0.16;90.54
39401;SHT31;75540;50.000;7.360;2024-01-27T07:42:13;-0.08;90.09
39401;SHT31;75540;50.000;7.360;2024-01-27T07:44:41;0.05;89.97
39401;SHT31;75540;50.000;7.360;2024-01-27T07:47:10;0.09;89.84
39401;SHT31;75540;50.000;7.360;2024-01-27T07:49:38;0.12;89.58
39401;SHT31;75540;50.000;7.360;2024-01-27T07:52:08;0.09;89.81
39401;SHT31;75540;50.000;7.360;2024-01-27T07:54:37;0.32;88.89
39401;SHT31;75540;50.000;7.360;2024-01-27T07:57:07;0.84;87.97
39401;SHT31;75540;50.000;7.360;2024-01-27T07:59:35;1.69;85.34
39401;SHT31;75540;50.000;7.360;2024-01-27T08:02:04;2.16;81.96
39401;SHT31;75540;50.000;7.360;2024-01-27T08:04:33;2.92;80.27
39401;SHT31;75540;50.000;7.360;2024-01-27T08:07:03;3.22;77.76
39401;SHT31;75540;50.000;7.360;2024-01-27T08:09:38;3.83;76.07
39401;SHT31;75540;50.000;7.360;2024-01-27T08:12:07;4.38;73.73
39401;SHT31;75540;50.000;7.360;2024-01-27T08:14:35;4.61;71.93
39401;SHT31;75540;50.000;7.360;2024-01-27T08:17:05;4.42;71.33
39401;SHT31;75540;50.000;7.360;2024-01-27T08:19:33;4.38;72.61
39401;SHT31;75540;50.000;7.360;2024-01-27T08:22:02;4.44;72.14
39401;SHT31;75540;50.000;7.360;2024-01-27T08:24:30;4.41;72.85
39401;SHT31;75540;50.000;7.360;2024-01-27T08:27:00;4.58;71.21
39401;SHT31;75540;50.000;7.360;2024-01-27T08:29:28;4.97;70.01
39401;SHT31;75540;50.000;7.360;2024-01-27T08:31:57;5.82;66.26
39401;SHT31;75540;50.000;7.360;2024-01-27T08:34:25;5.65;66.58
39401;SHT31;75540;50.000;7.360;2024-01-27T08:36:59;5.41;66.77
39401;SHT31;75540;50.000;7.360;2024-01-27T08:39:29;5.37;68.74
39401;SHT31;75540;50.000;7.360;2024-01-27T08:41:59;5.24;69.01
39401;SHT31;75540;50.000;7.360;2024-01-27T08:44:28;5.09;70.84
39401;SHT31;75540;50.000;7.360;2024-01-27T08:46:56;5.71;67.84
39401;SHT31;75540;50.000;7.360;2024-01-27T08:49:28;6.15;66.82
39401;SHT31;75540;50.000;7.360;2024-01-27T08:51:57;6.79;64.13
39401;SHT31;75540;50.000;7.360;2024-01-27T08:54:25;7.15;62.13
39401;SHT31;75540;50.000;7.360;2024-01-27T08:56:53;7.01;62.86
39401;SHT31;75540;50.000;7.360;2024-01-27T08:59:23;6.03;64.79
39401;SHT31;75540;50.000;7.360;2024-01-27T09:01:51;6.53;64.41
39401;SHT31;75540;50.000;7.360;2024-01-27T09:04:20;6.06;65.23
39401;SHT31;75540;50.000;7.360;2024-01-27T09:06:48;6.15;66.25
39401;SHT31;75540;50.000;7.360;2024-01-27T09:09:16;5.99;65.38
39401;SHT31;75540;50.000;7.360;2024-01-27T09:11:45;6.49;65.59
39401;SHT31;75540;50.000;7.360;2024-01-27T09:14:14;7.15;63.15
39401;SHT31;75540;50.000;7.360;2024-01-27T09:16:44;7.36;61.99
39401;SHT31;75540;50.000;7.360;2024-01-27T09:19:13;7.29;62.06
39401;SHT31;75540;50.000;7.360;2024-01-27T09:21:42;6.79;62.61
39401;SHT31;75540;50.000;7.360;2024-01-27T09:24:10;6.93;63.53
39401;SHT31;75540;50.000;7.360;2024-01-27T09:26:41;6.57;64.38
39401;SHT31;75540;50.000;7.360;2024-01-27T09:29:10;6.69;64.16
39401;SHT31;75540;50.000;7.360;2024-01-27T09:31:38;7.07;63.22
39401;SHT31;75540;50.000;7.360;2024-01-27T09:34:08;7.14;61.99
39401;SHT31;75540;50.000;7.360;2024-01-27T09:36:36;6.57;64.35
39401;SHT31;75540;50.000;7.360;2024-01-27T09:39:05;6.50;64.80
39401;SHT31;75540;50.000;7.360;2024-01-27T09:41:33;6.93;64.01
39401;SHT31;75540;50.000;7.360;2024-01-27T09:44:03;7.04;63.99
39401;SHT31;75540;50.000;7.360;2024-01-27T09:46:32;6.84;64.60
39401;SHT31;75540;50.000;7.360;2024-01-27T09:49:02;6.94;63.47
39401;SHT31;75540;50.000;7.360;2024-01-27T09:51:33;7.04;63.61
39401;SHT31;75540;50.000;7.360;2024-01-27T09:54:02;7.54;61.83
39401;SHT31;75540;50.000;7.360;2024-01-27T09:56:31;7.25;61.84
39401;SHT31;75540;50.000;7.360;2024-01-27T09:59:01;7.52;62.23
39401;SHT31;75540;50.000;7.360;2024-01-27T10:01:31;7.76;61.54
39401;SHT31;75540;50.000;7.360;2024-01-27T10:04:00;8.09;60.50
39401;SHT31;75540;50.000;7.360;2024-01-27T10:06:28;8.41;60.38
39401;SHT31;75540;50.000;7.360;2024-01-27T10:08:58;7.94;61.86
39401;SHT31;75540;50.000;7.360;2024-01-27T10:11:28;7.79;61.41
39401;SHT31;75540;50.000;7.360;2024-01-27T10:13:58;7.71;61.62
39401;SHT31;75540;50.000;7.360;2024-01-27T10:16:28;8.12;59.84
39401;SHT31;75540;50.000;7.360;2024-01-27T10:19:00;7.71;59.45
39401;SHT31;75540;50.000;7.360;2024-01-27T10:21:29;8.06;60.14
39401;SHT31;75540;50.000;7.360;2024-01-27T10:23:59;8.19;60.61
39401;SHT31;75540;50.000;7.360;2024-01-27T10:26:30;7.99;60.86
39401;SHT31;75540;50.000;7.360;2024-01-27T10:29:01;8.87;57.94
39401;SHT31;75540;50.000;7.360;2024-01-27T10:31:30;8.64;58.87
39401;SHT31;75540;50.000;7.360;2024-01-27T10:33:59;7.73;59.99
39401;SHT31;75540;50.000;7.360;2024-01-27T10:36:38;8.38;60.31
39401;SHT31;75540;50.000;7.360;2024-01-27T10:39:16;7.81;59.48
39401;SHT31;75540;50.000;7.360;2024-01-27T10:41:45;7.99;60.72
39401;SHT31;75540;50.000;7.360;2024-01-27T10:44:15;9.08;57.80
39401;SHT31;75540;50.000;7.360;2024-01-27T10:46:48;8.97;56.14
39401;SHT31;75540;50.000;7.360;2024-01-27T10:49:18;8.85;58.04
39401;SHT31;75540;50.000;7.360;2024-01-27T10:51:53;8.87;56.95
39401;SHT31;75540;50.000;7.360;2024-01-27T10:54:25;9.08;56.30
39401;SHT31;75540;50.000;7.360;2024-01-27T10:56:56;7.58;61.61
39401;SHT31;75540;50.000;7.360;2024-01-27T10:59:27;8.12;59.23
39401;SHT31;75540;50.000;7.360;2024-01-27T11:01:56;8.23;59.57
39401;SHT31;75540;50.000;7.360;2024-01-27T11:04:25;7.94;59.29
39401;SHT31;75540;50.000;7.360;2024-01-27T11:06:55;8.03;58.82
39401;SHT31;75540;50.000;7.360;2024-01-27T11:09:26;7.83;59.73
39401;SHT31;75540;50.000;7.360;2024-01-27T11:11:55;8.30;57.88
39401;SHT31;75540;50.000;7.360;2024-01-27T11:14:24;7.25;60.61
39401;SHT31;75540;50.000;7.360;2024-01-27T11:16:57;8.44;58.37
39401;SHT31;75540;50.000;7.360;2024-01-27T11:19:26;8.81;57.81
39401;SHT31;75540;50.000;7.360;2024-01-27T11:22:01;9.36;55.61
39401;SHT31;75540;50.000;7.360;2024-01-27T11:24:31;9.30;54.76
39401;SHT31;75540;50.000;7.360;2024-01-27T11:27:02;9.11;56.67
39401;SHT31;75540;50.000;7.360;2024-01-27T11:29:31;8.58;57.26
39401;SHT31;75540;50.000;7.360;2024-01-27T11:32:02;8.67;57.94
39401;SHT31;75540;50.000;7.360;2024-01-27T11:34:41;9.28;56.09
39401;SHT31;75540;50.000;7.360;2024-01-27T11:37:12;9.33;55.81
39401;SHT31;75540;50.000;7.360;2024-01-27T11:39:42;9.39;55.63
39401;SHT31;75540;50.000;7.360;2024-01-27T11:42:12;9.16;56.15
39401;SHT31;75540;50.000;7.360;2024-01-27T11:44:42;8.27;60.41
39401;SHT31;75540;50.000;7.360;2024-01-27T11:47:18;8.98;57.98
39401;SHT31;75540;50.000;7.360;2024-01-27T11:49:52;8.78;57.32
39401;SHT31;75540;50.000;7.360;2024-01-27T11:52:21;8.61;57.07
39401;SHT31;75540;50.000;7.360;2024-01-27T11:54:55;8.77;56.39
39401;SHT31;75540;50.000;7.360;2024-01-27T11:57:23;9.25;56.47
39401;SHT31;75540;50.000;7.360;2024-01-27T11:59:53;9.20;54.96
39401;SHT31;75540;50.000;7.360;2024-01-27T12:02:21;9.20;54.60
39401;SHT31;75540;50.000;7.360;2024-01-27T12:04:51;9.40;55.31
39401;SHT31;75540;50.000;7.360;2024-01-27T12:07:20;8.91;57.83
39401;SHT31;75540;50.000;7.360;2024-01-27T12:09:49;8.63;56.67
39401;SHT31;75540;50.000;7.360;2024-01-27T12:12:19;8.22;58.22
39401;SHT31;75540;50.000;7.360;2024-01-27T12:14:49;8.53;59.68
39401;SHT31;75540;50.000;7.360;2024-01-27T12:17:20;8.40;58.80
39401;SHT31;75540;50.000;7.360;2024-01-27T12:19:50;8.61;58.59
39401;SHT31;75540;50.000;7.360;2024-01-27T12:22:24;8.30;58.24
39401;SHT31;75540;50.000;7.360;2024-01-27T12:24:54;8.30;59.31
39401;SHT31;75540;50.000;7.360;2024-01-27T12:27:24;9.05;56.96
39401;SHT31;75540;50.000;7.360;2024-01-27T12:29:52;8.79;57.80
39401;SHT31;75540;50.000;7.360;2024-01-27T12:32:21;8.57;59.34
39401;SHT31;75540;50.000;7.360;2024-01-27T12:34:49;8.37;60.47
39401;SHT31;75540;50.000;7.360;2024-01-27T12:37:18;7.72;60.49
39401;SHT31;75540;50.000;7.360;2024-01-27T12:39:49;7.81;59.07
39401;SHT31;75540;50.000;7.360;2024-01-27T12:42:19;7.55;59.53
39401;SHT31;75540;50.000;7.360;2024-01-27T12:44:48;7.35;60.51
39401;SHT31;75540;50.000;7.360;2024-01-27T12:47:17;7.85;58.44
39401;SHT31;75540;50.000;7.360;2024-01-27T12:49:47;7.93;58.17
39401;SHT31;75540;50.000;7.360;2024-01-27T12:52:15;8.26;58.84
39401;SHT31;75540;50.000;7.360;2024-01-27T12:54:44;7.94;59.04
39401;SHT31;75540;50.000;7.360;2024-01-27T12:57:13;7.12;59.70
39401;SHT31;75540;50.000;7.360;2024-01-27T12:59:41;7.49;58.10
39401;SHT31;75540;50.000;7.360;2024-01-27T13:02:11;8.13;56.94
39401;SHT31;75540;50.000;7.360;2024-01-27T13:04:39;7.93;58.03
39401;SHT31;75540;50.000;7.360;2024-01-27T13:07:07;8.17;55.54
39401;SHT31;75540;50.000;7.360;2024-01-27T13:09:36;7.38;53.95
39401;SHT31;75540;50.000;7.360;2024-01-27T13:12:05;7.69;53.14
39401;SHT31;75540;50.000;7.360;2024-01-27T13:14:34;8.06;56.14
39401;SHT31;75540;50.000;7.360;2024-01-27T13:17:03;7.35;54.49
39401;SHT31;75540;50.000;7.360;2024-01-27T13:19:33;7.17;55.13
39401;SHT31;75540;50.000;7.360;2024-01-27T13:22:01;7.12;52.22
39401;SHT31;75540;50.000;7.360;2024-01-27T13:24:32;7.15;53.02
39401;SHT31;75540;50.000;7.360;2024-01-27T13:27:00;7.31;55.14
39401;SHT31;75540;50.000;7.360;2024-01-27T13:29:29;7.94;54.89
39401;SHT31;75540;50.000;7.360;2024-01-27T13:31:59;7.94;55.62
39401;SHT31;75540;50.000;7.360;2024-01-27T13:34:28;7.47;55.31
39401;SHT31;75540;50.000;7.360;2024-01-27T13:36:59;7.41;51.26
39401;SHT31;75540;50.000;7.360;2024-01-27T13:39:30;7.36;49.89
39401;SHT31;75540;50.000;7.360;2024-01-27T13:41:58;6.74;53.62
39401;SHT31;75540;50.000;7.360;2024-01-27T13:44:27;7.42;54.99
39401;SHT31;75540;50.000;7.360;2024-01-27T13:46:57;7.83;54.62
39401;SHT31;75540;50.000;7.360;2024-01-27T13:49:27;7.11;56.20
39401;SHT31;75540;50.000;7.360;2024-01-27T13:51:56;7.01;56.79
39401;SHT31;75540;50.000;7.360;2024-01-27T13:54:26;7.28;56.73
39401;SHT31;75540;50.000;7.360;2024-01-27T13:56:54;7.24;56.71
39401;SHT31;75540;50.000;7.360;2024-01-27T13:59:23;7.41;57.73
39401;SHT31;75540;50.000;7.360;2024-01-27T14:01:52;7.12;57.79
39401;SHT31;75540;50.000;7.360;2024-01-27T14:04:22;7.27;58.32
39401;SHT31;75540;50.000;7.360;2024-01-27T14:06:51;7.19;58.02
39401;SHT31;75540;50.000;7.360;2024-01-27T14:09:20;6.84;58.51
39401;SHT31;75540;50.000;7.360;2024-01-27T14:11:50;6.81;58.35
39401;SHT31;75540;50.000;7.360;2024-01-27T14:14:19;6.77;58.28
39401;SHT31;75540;50.000;7.360;2024-01-27T14:16:47;7.01;58.10
39401;SHT31;75540;50.000;7.360;2024-01-27T14:19:16;6.94;48.97
39401;SHT31;75540;50.000;7.360;2024-01-27T14:21:44;6.84;47.39
39401;SHT31;75540;50.000;7.360;2024-01-27T14:24:13;6.56;47.08
39401;SHT31;75540;50.000;7.360;2024-01-27T14:26:41;6.91;48.58
39401;SHT31;75540;50.000;7.360;2024-01-27T14:29:11;7.22;46.51
39401;SHT31;75540;50.000;7.360;2024-01-27T14:31:39;7.14;49.48
39401;SHT31;75540;50.000;7.360;2024-01-27T14:34:07;7.18;43.61
39401;SHT31;75540;50.000;7.360;2024-01-27T14:36:37;6.91;46.00
39401;SHT31;75540;50.000;7.360;2024-01-27T14:39:06;7.36;45.63
39401;SHT31;75540;50.000;7.360;2024-01-27T14:41:37;7.31;46.87
39401;SHT31;75540;50.000;7.360;2024-01-27T14:44:06;7.29;45.99
39401;SHT31;75540;50.000;7.360;2024-01-27T14:46:35;6.90;47.61
39401;SHT31;75540;50.000;7.360;2024-01-27T14:49:07;6.94;48.52
39401;SHT31;75540;50.000;7.360;2024-01-27T14:51:35;7.21;48.64
39401;SHT31;75540;50.000;7.360;2024-01-27T14:54:04;7.24;48.45
39401;SHT31;75540;50.000;7.360;2024-01-27T14:56:33;7.04;48.75
39401;SHT31;75540;50.000;7.360;2024-01-27T14:59:01;6.69;48.20
39401;SHT31;75540;50.000;7.360;2024-01-27T15:01:29;7.08;50.48
39401;SHT31;75540;50.000;7.360;2024-01-27T15:03:59;6.73;50.41
39401;SHT31;75540;50.000;7.360;2024-01-27T15:06:29;6.57;51.71
39401;SHT31;75540;50.000;7.360;2024-01-27T15:08:58;6.67;51.94
39401;SHT31;75540;50.000;7.360;2024-01-27T15:11:27;6.69;52.64
39401;SHT31;75540;50.000;7.360;2024-01-27T15:13:55;6.40;54.34
39401;SHT31;75540;50.000;7.360;2024-01-27T15:16:24;6.46;53.75
39401;SHT31;75540;50.000;7.360;2024-01-27T15:18:53;6.30;52.36
39401;SHT31;75540;50.000;7.360;2024-01-27T15:21:23;6.16;50.66
39401;SHT31;75540;50.000;7.360;2024-01-27T15:23:53;5.92;53.19
39401;SHT31;75540;50.000;7.360;2024-01-27T15:26:22;5.90;54.88
39401;SHT31;75540;50.000;7.360;2024-01-27T15:28:50;5.94;54.71
39401;SHT31;75540;50.000;7.360;2024-01-27T15:31:18;5.71;55.52
39401;SHT31;75540;50.000;7.360;2024-01-27T15:33:47;5.62;55.03
39401;SHT31;75540;50.000;7.360;2024-01-27T15:36:15;5.82;55.40
39401;SHT31;75540;50.000;7.360;2024-01-27T15:38:45;5.90;53.63
39401;SHT31;75540;50.000;7.360;2024-01-27T15:41:14;5.90;53.17
39401;SHT31;75540;50.000;7.360;2024-01-27T15:43:45;5.81;53.31
39401;SHT31;75540;50.000;7.360;2024-01-27T15:46:16;5.77;54.26
39401;SHT31;75540;50.000;7.360;2024-01-27T15:48:44;5.72;55.52
39401;SHT31;75540;50.000;7.360;2024-01-27T15:51:13;5.52;56.99
39401;SHT31;75540;50.000;7.360;2024-01-27T15:53:42;5.33;57.50